Time;durP1;ratioP1;P1;durP2;ratioP2;P2;SDS_P1;SDS_P2;PMS_P1;PMS_P2;Temp;Humidity;BMP_temperature;BMP_pressure;BME280_temperature;BME280_humidity;BME280_pressure;Samples;Min_cycle;Max_cycle;Signal;HPM_P1;HPM_P2
2022/03/26 00:00:16;;;;;;;0.60;0.60;;;;;;;8.08;46.42;97869.91;29395;218;63009;-61
2022/03/26 00:00:48;;;;;;;0.60;0.60;;;;;;;8.08;46.61;97878.03;29395;228;63005;-61
2022/03/26 00:01:19;;;;;;;0.60;0.60;;;;;;;8.07;46.37;97878.28;29395;270;63008;-60
2022/03/26 00:01:50;;;;;;;2.58;2.47;;;;;;;8.06;47.04;97874.75;29395;241;63005;-61
2022/03/26 00:02:21;;;;;;;0.50;0.50;;;;;;;8.02;48.28;97883.63;29395;197;63009;-61
2022/03/26 00:02:53;;;;;;;0.50;0.50;;;;;;;7.98;47.45;97880.59;29395;241;63005;-61
2022/03/26 00:03:24;;;;;;;0.50;0.50;;;;;;;7.96;47.23;97871.97;29395;198;63009;-61
2022/03/26 00:03:56;;;;;;;0.50;0.50;;;;;;;7.95;47.30;97877.62;29394;196;64004;-60
2022/03/26 00:04:28;;;;;;;0.50;0.50;;;;;;;7.94;47.13;97884.91;29394;222;64009;-61
2022/03/26 00:04:59;;;;;;;0.50;0.50;;;;;;;7.93;47.55;97880.56;29395;214;63004;-61
2022/03/26 00:05:31;;;;;;;0.50;0.50;;;;;;;7.93;48.05;97877.88;29395;233;63009;-62
2022/03/26 00:06:04;;;;;;;4.50;4.32;;;;;;;7.90;47.64;97882.97;29395;277;63004;-62
2022/03/26 00:06:36;;;;;;;1.30;1.30;;;;;;;7.88;47.06;97877.81;29395;239;63009;-62
2022/03/26 00:07:07;;;;;;;0.50;0.50;;;;;;;7.85;47.85;97883.72;29395;239;63005;-59
2022/03/26 00:07:38;;;;;;;0.50;0.50;;;;;;;7.84;47.50;97884.78;29395;231;63009;-60
2022/03/26 00:08:10;;;;;;;0.50;0.50;;;;;;;7.82;48.12;97881.50;29395;197;63005;-62
2022/03/26 00:08:41;;;;;;;0.50;0.50;;;;;;;7.79;47.81;97881.19;29395;232;63009;-62
2022/03/26 00:09:13;;;;;;;0.50;0.50;;;;;;;7.73;49.18;97888.41;29395;236;63005;-61
2022/03/26 00:09:49;;;;;;;0.50;0.50;;;;;;;7.72;48.42;97884.06;29394;289;64009;-62
2022/03/26 00:10:20;;;;;;;0.50;0.50;;;;;;;7.70;48.50;97873.50;29395;228;63004;-62
2022/03/26 00:10:52;;;;;;;0.50;0.50;;;;;;;7.69;47.90;97882.69;29395;233;63009;-60
2022/03/26 00:11:23;;;;;;;0.60;0.60;;;;;;;7.69;48.06;97877.28;29395;248;63004;-61
2022/03/26 00:11:54;;;;;;;7.43;6.90;;;;;;;7.69;47.96;97876.47;29395;226;63009;-62
2022/03/26 00:12:25;;;;;;;0.50;0.50;;;;;;;7.69;48.12;97884.56;29395;221;63004;-62
2022/03/26 00:12:57;;;;;;;0.50;0.50;;;;;;;7.69;47.72;97881.84;29395;230;63008;-60
2022/03/26 00:13:29;;;;;;;0.50;0.50;;;;;;;7.66;48.40;97874.25;29395;231;63004;-61
2022/03/26 00:14:00;;;;;;;0.60;0.60;;;;;;;7.64;48.29;97879.09;29395;212;63009;-61
2022/03/26 00:14:31;;;;;;;6.47;6.28;;;;;;;7.62;48.17;97884.75;29395;262;63005;-60
2022/03/26 00:15:04;;;;;;;0.90;0.90;;;;;;;7.61;48.07;97874.22;29394;198;64009;-61
2022/03/26 00:15:35;;;;;;;0.50;0.50;;;;;;;7.60;48.04;97877.97;29395;207;63005;-61
2022/03/26 00:16:06;;;;;;;0.50;0.50;;;;;;;7.58;48.09;97886.34;29395;209;63009;-61
2022/03/26 00:16:38;;;;;;;0.60;0.60;;;;;;;7.57;48.22;97883.88;29395;234;63005;-62
2022/03/26 00:17:09;;;;;;;0.50;0.50;;;;;;;7.56;47.93;97882.25;29395;214;63009;-61
2022/03/26 00:17:43;;;;;;;0.50;0.50;;;;;;;7.54;48.01;97881.66;29395;218;63004;-61
2022/03/26 00:18:17;;;;;;;0.60;0.60;;;;;;;7.55;47.67;97886.00;29395;232;63009;-62
2022/03/26 00:18:49;;;;;;;0.60;0.60;;;;;;;7.57;47.35;97878.47;29395;265;63004;-61
2022/03/26 00:19:20;;;;;;;0.60;0.60;;;;;;;7.58;47.89;97885.50;29395;227;63009;-62
2022/03/26 00:19:53;;;;;;;0.60;0.60;;;;;;;7.52;47.70;97879.22;29395;234;63004;-60
2022/03/26 00:20:24;;;;;;;0.70;0.70;;;;;;;7.51;47.52;97876.75;29394;202;64008;-61
2022/03/26 00:20:55;;;;;;;0.50;0.50;;;;;;;7.51;47.53;97879.47;29395;239;63010;-61
2022/03/26 00:21:27;;;;;;;0.52;0.52;;;;;;;7.50;47.83;97888.63;29395;203;63009;-61
2022/03/26 00:21:58;;;;;;;0.50;0.50;;;;;;;7.51;47.97;97884.88;29395;197;63005;-62
2022/03/26 00:22:29;;;;;;;0.50;0.50;;;;;;;7.51;47.78;97884.88;29395;253;63009;-61
2022/03/26 00:23:01;;;;;;;0.60;0.60;;;;;;;7.50;48.10;97889.44;29395;216;63005;-62
2022/03/26 00:23:32;;;;;;;0.50;0.50;;;;;;;7.49;47.98;97890.50;29395;285;63020;-61
2022/03/26 00:24:04;;;;;;;0.60;0.60;;;;;;;7.49;48.58;97892.41;29395;222;63005;-61
2022/03/26 00:24:36;;;;;;;0.50;0.50;;;;;;;7.47;48.58;97889.13;29395;216;63027;-62
2022/03/26 00:25:09;;;;;;;0.50;0.50;;;;;;;7.44;48.80;97889.63;29395;236;63004;-60
2022/03/26 00:25:40;;;;;;;0.50;0.50;;;;;;;7.42;48.59;97887.16;29394;236;64009;-61
2022/03/26 00:26:12;;;;;;;0.50;0.50;;;;;;;7.42;48.40;97883.66;29395;232;63004;-61
2022/03/26 00:26:44;;;;;;;0.62;0.62;;;;;;;7.43;48.01;97888.81;29373;203;63009;-60
2022/03/26 00:27:17;;;;;;;0.57;0.57;;;;;;;7.43;48.06;97887.97;29395;228;63004;-61
2022/03/26 00:27:49;;;;;;;0.57;0.57;;;;;;;7.43;48.09;97887.97;29395;214;63008;-61
2022/03/26 00:28:24;;;;;;;0.88;0.88;;;;;;;7.43;47.96;97887.97;29395;234;63005;-63
2022/03/26 00:28:56;;;;;;;0.50;0.50;;;;;;;7.44;47.74;97881.53;29395;213;63009;-61
2022/03/26 00:29:28;;;;;;;0.60;0.60;;;;;;;7.44;47.77;97882.34;29395;242;63016;-62
2022/03/26 00:30:02;;;;;;;0.50;0.50;;;;;;;7.45;47.78;97880.47;29395;197;63009;-62
2022/03/26 00:30:34;;;;;;;0.50;0.50;;;;;;;7.44;48.39;97884.22;29395;223;63005;-61
2022/03/26 00:31:06;;;;;;;0.50;0.50;;;;;;;7.42;48.42;97886.34;29394;229;64009;-62
2022/03/26 00:31:38;;;;;;;0.50;0.50;;;;;;;7.37;48.53;97885.22;29395;230;63005;-61
2022/03/26 00:32:10;;;;;;;0.60;0.60;;;;;;;7.36;48.29;97878.16;29395;213;63009;-61
2022/03/26 00:32:42;;;;;;;0.60;0.60;;;;;;;7.37;48.41;97885.22;29394;202;64004;-62
2022/03/26 00:33:17;;;;;;;0.50;0.50;;;;;;;7.36;48.17;97883.56;29395;215;63009;-60
2022/03/26 00:33:48;;;;;;;0.50;0.50;;;;;;;7.35;48.37;97881.94;29395;219;63004;-63
2022/03/26 00:34:20;;;;;;;0.60;0.60;;;;;;;7.36;48.21;97878.16;29373;221;63009;-61
2022/03/26 00:34:51;;;;;;;0.50;0.50;;;;;;;7.36;48.37;97878.16;29395;224;63004;-62
2022/03/26 00:35:22;;;;;;;0.60;0.60;;;;;;;7.35;48.08;97876.53;29395;290;63024;-61
2022/03/26 00:35:53;;;;;;;0.60;0.60;;;;;;;7.35;48.30;97873.84;29395;205;63005;-61
2022/03/26 00:36:25;;;;;;;0.60;0.60;;;;;;;7.35;48.51;97879.22;29394;292;64009;-62
2022/03/26 00:37:00;;;;;;;0.60;0.60;;;;;;;7.32;48.39;97871.62;29371;253;64005;-61
2022/03/26 00:37:32;;;;;;;0.50;0.50;;;;;;;7.31;48.23;97879.97;29395;202;63009;-61
2022/03/26 00:38:03;;;;;;;0.73;0.73;;;;;;;7.31;48.51;97879.97;29395;224;63005;-61
2022/03/26 00:38:35;;;;;;;0.50;0.50;;;;;;;7.31;48.42;97880.78;29395;213;63009;-62
2022/03/26 00:39:07;;;;;;;0.57;0.57;;;;;;;7.31;48.35;97875.41;29395;214;63005;-61
2022/03/26 00:39:39;;;;;;;0.60;0.60;;;;;;;7.30;48.50;97879.16;29395;314;63009;-60
2022/03/26 00:40:13;;;;;;;0.50;0.50;;;;;;;7.30;48.69;97873.75;29373;219;63004;-62
2022/03/26 00:40:47;;;;;;;0.50;0.50;;;;;;;7.30;48.40;97879.16;29395;222;63009;-61
2022/03/26 00:41:19;;;;;;;0.60;0.60;;;;;;;7.29;48.70;97877.53;29395;320;63004;-61
2022/03/26 00:41:52;;;;;;;0.60;0.60;;;;;;;7.27;48.39;97879.69;29395;275;63009;-62
2022/03/26 00:42:24;;;;;;;0.50;0.50;;;;;;;7.26;48.59;97875.34;29371;196;64004;-62
2022/03/26 00:42:55;;;;;;;0.50;0.50;;;;;;;7.25;48.88;97872.91;29371;267;64008;-62
2022/03/26 00:43:29;;;;;;;2.58;2.50;;;;;;;7.24;48.70;97873.97;29373;236;63005;-61
2022/03/26 00:44:01;;;;;;;1.15;1.15;;;;;;;7.24;48.71;97880.16;29395;212;63021;-61
2022/03/26 00:44:32;;;;;;;0.50;0.50;;;;;;;7.24;48.77;97874.78;29373;248;63005;-61
2022/03/26 00:45:04;;;;;;;0.60;0.60;;;;;;;7.23;48.54;97870.44;29395;214;63009;-61
2022/03/26 00:45:35;;;;;;;0.60;0.60;;;;;;;7.25;48.38;97876.41;29395;197;63005;-62
2022/03/26 00:46:07;;;;;;;0.50;0.50;;;;;;;7.25;48.33;97872.91;29395;269;63025;-61
2022/03/26 00:46:38;;;;;;;0.60;0.60;;;;;;;7.25;48.41;97875.59;29395;238;63005;-62
2022/03/26 00:47:09;;;;;;;1.30;1.30;;;;;;;7.24;48.45;97882.87;29394;228;64009;-61
2022/03/26 00:47:40;;;;;;;0.82;0.82;;;;;;;7.22;49.26;97882.31;29395;228;63004;-60
2022/03/26 00:48:12;;;;;;;0.60;0.60;;;;;;;7.19;49.11;97876.56;29394;227;64009;-62
2022/03/26 00:48:43;;;;;;;0.50;0.50;;;;;;;7.18;48.99;97875.75;29373;209;63004;-61
2022/03/26 00:49:15;;;;;;;0.60;0.60;;;;;;;7.17;49.13;97882.22;29395;230;63009;-60
2022/03/26 00:49:46;;;;;;;0.50;0.50;;;;;;;7.16;49.29;97883.28;29395;238;63004;-61
2022/03/26 00:50:18;;;;;;;0.60;0.60;;;;;;;7.15;49.52;97881.66;29395;201;63008;-61
2022/03/26 00:50:49;;;;;;;0.60;0.60;;;;;;;7.14;49.53;97880.00;29373;203;63005;-61
2022/03/26 00:51:20;;;;;;;0.50;0.50;;;;;;;7.14;49.04;97885.41;29395;217;63009;-61
2022/03/26 00:51:54;;;;;;;0.50;0.50;;;;;;;7.15;49.29;97881.66;29373;233;63005;-61
2022/03/26 00:52:25;;;;;;;0.50;0.50;;;;;;;7.13;50.02;97883.78;29395;213;63009;-61
2022/03/26 00:52:56;;;;;;;0.60;0.60;;;;;;;7.10;50.06;97886.12;29395;228;63000;-62
2022/03/26 00:53:31;;;;;;;1.15;1.15;;;;;;;7.07;49.57;97885.56;29394;224;64009;-61
2022/03/26 00:54:03;;;;;;;0.52;0.52;;;;;;;7.07;49.41;97879.34;29394;215;64005;-61
2022/03/26 00:54:35;;;;;;;0.60;0.60;;;;;;;7.08;49.41;97886.38;29394;234;64009;-62
2022/03/26 00:55:07;;;;;;;0.50;0.50;;;;;;;7.09;49.39;97879.09;29395;242;63007;-61
2022/03/26 00:55:40;;;;;;;0.50;0.50;;;;;;;7.08;49.06;97883.69;29395;283;63009;-61
2022/03/26 00:56:12;;;;;;;0.60;0.60;;;;;;;7.08;48.99;97886.38;29395;196;63004;-61
2022/03/26 00:56:44;;;;;;;0.60;0.60;;;;;;;7.05;49.75;97876.09;29372;202;63009;-61
2022/03/26 00:57:17;;;;;;;0.50;0.50;;;;;;;7.05;49.49;97886.88;29395;210;63004;-61
2022/03/26 00:57:53;;;;;;;0.60;0.60;;;;;;;7.03;49.14;97881.72;29394;358;64008;-60
2022/03/26 00:58:24;;;;;;;0.60;0.60;;;;;;;7.02;49.37;97882.78;29373;363;63005;-60
2022/03/26 00:58:56;;;;;;;0.50;0.50;;;;;;;7.03;49.09;97878.22;29373;265;63009;-61
2022/03/26 00:59:30;;;;;;;0.50;0.50;;;;;;;7.03;49.46;97879.03;29371;341;64016;-61
2022/03/26 01:00:05;;;;;;;0.50;0.50;;;;;;;7.01;49.78;97881.16;29395;247;63005;-60
2022/03/26 01:00:36;;;;;;;0.80;0.80;;;;;;;7.01;49.42;97883.03;29395;212;63005;-62
2022/03/26 01:01:08;;;;;;;0.60;0.60;;;;;;;7.02;49.72;97876.56;29373;301;63009;-62
2022/03/26 01:01:39;;;;;;;0.60;0.60;;;;;;;7.01;49.30;97875.75;29373;345;63005;-61
2022/03/26 01:02:11;;;;;;;0.60;0.60;;;;;;;7.02;49.21;97881.97;29373;209;63009;-62
2022/03/26 01:02:42;;;;;;;0.50;0.50;;;;;;;7.02;49.37;97876.56;29373;320;63004;-61
2022/03/26 01:03:16;;;;;;;0.57;0.57;;;;;;;7.02;49.24;97877.38;29373;236;63009;-62
2022/03/26 01:03:48;;;;;;;1.00;0.98;;;;;;;7.02;49.11;97881.97;29373;334;63004;-61
2022/03/26 01:04:21;;;;;;;0.60;0.60;;;;;;;7.01;49.27;97874.94;29395;203;63017;-62
2022/03/26 01:04:52;;;;;;;0.50;0.50;;;;;;;7.00;49.55;97878.69;29394;208;64004;-62
2022/03/26 01:05:27;;;;;;;0.50;0.50;;;;;;;6.98;49.32;97880.81;29373;314;63018;-62
2022/03/26 01:05:59;;;;;;;0.50;0.50;;;;;;;6.97;49.54;97879.19;29395;223;63005;-62
2022/03/26 01:06:30;;;;;;;0.60;0.60;;;;;;;6.97;49.81;97884.59;29395;313;63009;-62
2022/03/26 01:07:02;;;;;;;0.60;0.60;;;;;;;6.94;49.68;97874.28;29394;229;64005;-62
2022/03/26 01:07:33;;;;;;;0.60;0.60;;;;;;;6.94;49.59;97880.50;29373;214;63009;-62
2022/03/26 01:08:05;;;;;;;0.68;0.68;;;;;;;6.94;49.77;97885.06;29394;256;64005;-61
2022/03/26 01:08:36;;;;;;;0.60;0.60;;;;;;;6.93;49.69;97878.84;29373;242;63009;-61
2022/03/26 01:09:07;;;;;;;0.60;0.60;;;;;;;6.92;49.77;97876.44;29395;211;63005;-62
2022/03/26 01:09:38;;;;;;;0.90;0.90;;;;;;;6.91;49.50;97880.19;29395;199;63009;-61
2022/03/26 01:10:10;;;;;;;0.60;0.60;;;;;;;6.92;49.78;97876.44;29395;242;63004;-62
2022/03/26 01:10:44;;;;;;;0.50;0.50;;;;;;;6.91;49.70;97880.19;29394;205;64009;-62
2022/03/26 01:11:17;;;;;;;0.60;0.60;;;;;;;6.89;49.82;97875.03;29395;210;63004;-60
2022/03/26 01:11:48;;;;;;;0.60;0.60;;;;;;;6.88;49.80;97875.28;29395;235;63009;-60
2022/03/26 01:12:20;;;;;;;0.60;0.60;;;;;;;6.87;50.29;97881.75;29395;209;63004;-61
2022/03/26 01:12:52;;;;;;;0.60;0.60;;;;;;;6.86;50.20;97877.41;29395;258;63008;-61
2022/03/26 01:13:25;;;;;;;0.50;0.50;;;;;;;6.86;50.09;97880.09;29395;222;63010;-62
2022/03/26 01:14:04;;;;;;;0.60;0.60;;;;;;;6.86;50.36;97878.22;29395;230;63009;-61
2022/03/26 01:14:35;;;;;;;0.50;0.50;;;;;;;6.86;50.23;97877.41;29395;304;63016;-61
2022/03/26 01:15:08;;;;;;;6.10;5.78;;;;;;;6.85;50.22;97875.78;29394;264;64009;-62
2022/03/26 01:15:40;;;;;;;0.88;0.88;;;;;;;6.86;50.10;97877.41;29395;251;63005;-62
2022/03/26 01:16:15;;;;;;;0.60;0.60;;;;;;;6.87;49.60;97873.66;29373;228;63009;-60
2022/03/26 01:16:47;;;;;;;0.60;0.60;;;;;;;6.86;49.48;97874.72;29373;268;63005;-62
2022/03/26 01:17:19;;;;;;;0.60;0.60;;;;;;;6.86;49.57;97872.00;29395;285;63009;-63
2022/03/26 01:17:50;;;;;;;2.35;2.15;;;;;;;6.85;50.29;97876.59;29395;369;63004;-62
2022/03/26 01:18:22;;;;;;;0.60;0.60;;;;;;;6.81;50.76;97878.12;29373;215;63009;-60
2022/03/26 01:18:56;;;;;;;0.60;0.60;;;;;;;6.80;50.58;97872.97;29395;233;63004;-61
2022/03/26 01:19:27;;;;;;;0.60;0.60;;;;;;;6.77;50.63;97878.88;29395;240;63008;-61
2022/03/26 01:20:01;;;;;;;0.50;0.50;;;;;;;6.74;50.38;97872.06;29394;215;64004;-60
2022/03/26 01:20:33;;;;;;;0.60;0.60;;;;;;;6.75;50.44;97880.97;29394;210;64008;-60
2022/03/26 01:21:05;;;;;;;0.60;0.60;;;;;;;6.76;50.28;97879.94;29373;352;63005;-60
2022/03/26 01:21:36;;;;;;;0.60;0.60;;;;;;;6.76;50.18;97877.22;29373;197;63009;-62
2022/03/26 01:22:08;;;;;;;0.60;0.60;;;;;;;6.75;50.27;97871.00;29371;277;64005;-60
2022/03/26 01:22:39;;;;;;;0.50;0.50;;;;;;;6.78;50.24;97875.09;29373;197;63009;-62
2022/03/26 01:23:11;;;;;;;0.57;0.57;;;;;;;6.79;50.04;97882.13;29373;214;63005;-60
2022/03/26 01:23:43;;;;;;;0.50;0.50;;;;;;;6.80;50.01;97881.06;29373;264;63009;-61
2022/03/26 01:24:14;;;;;;;0.50;0.50;;;;;;;6.79;49.97;97880.25;29373;208;63005;-60
2022/03/26 01:24:45;;;;;;;0.60;0.60;;;;;;;6.79;50.02;97880.25;29373;250;63009;-61
2022/03/26 01:25:17;;;;;;;0.50;0.50;;;;;;;6.77;50.02;97874.28;29373;335;63004;-61
2022/03/26 01:25:49;;;;;;;0.60;0.60;;;;;;;6.77;49.93;97878.88;29373;222;63009;-62
2022/03/26 01:26:20;;;;;;;0.60;0.60;;;;;;;6.76;50.05;97878.03;29373;264;63004;-60
2022/03/26 01:26:51;;;;;;;0.60;0.60;;;;;;;6.78;50.02;97880.50;29394;342;64009;-60
2022/03/26 01:27:23;;;;;;;0.60;0.60;;;;;;;6.78;50.29;97877.81;29373;213;63004;-61
2022/03/26 01:27:54;;;;;;;0.50;0.50;;;;;;;6.79;49.82;97876.75;29373;255;63009;-61
2022/03/26 01:28:26;;;;;;;0.60;0.60;;;;;;;6.79;50.18;97876.75;29373;204;63005;-60
2022/03/26 01:28:57;;;;;;;0.50;0.50;;;;;;;6.78;49.72;97880.50;29373;347;63009;-61
2022/03/26 01:29:29;;;;;;;0.50;0.50;;;;;;;6.77;50.17;97882.37;29373;255;63005;-60
2022/03/26 01:30:05;;;;;;;0.60;0.60;;;;;;;6.76;50.13;97874.53;29395;227;63009;-60
2022/03/26 01:30:36;;;;;;;0.60;0.60;;;;;;;6.73;50.25;97876.66;29371;248;63994;-60
2022/03/26 01:31:07;;;;;;;0.60;0.60;;;;;;;6.71;50.34;97877.97;29373;205;63009;-61
2022/03/26 01:31:38;;;;;;;0.52;0.52;;;;;;;6.69;50.55;97872.81;29395;373;63005;-60
2022/03/26 01:32:10;;;;;;;0.60;0.60;;;;;;;6.68;50.61;97876.56;29371;231;64009;-60
2022/03/26 01:32:45;;;;;;;0.60;0.60;;;;;;;6.66;50.44;97875.97;29373;234;63004;-59
2022/03/26 01:33:16;;;;;;;0.50;0.50;;;;;;;6.66;50.53;97877.88;29395;196;63009;-62
2022/03/26 01:33:48;;;;;;;11.18;10.65;;;;;;;6.67;50.46;97874.09;29362;228;66004;-61
2022/03/26 01:34:19;;;;;;;0.60;0.60;;;;;;;6.66;50.41;97877.88;29373;301;63009;-60
2022/03/26 01:34:50;;;;;;;0.55;0.55;;;;;;;6.66;50.35;97872.47;29373;262;63004;-62
2022/03/26 01:35:23;;;;;;;0.60;0.60;;;;;;;6.65;50.21;97878.94;29373;245;63009;-61
2022/03/26 01:35:54;;;;;;;0.60;0.60;;;;;;;6.65;50.45;97877.03;29395;227;63005;-60
2022/03/26 01:36:26;;;;;;;0.60;0.60;;;;;;;6.64;50.40;97879.97;29373;204;63009;-61
2022/03/26 01:36:57;;;;;;;0.85;0.85;;;;;;;6.63;50.43;97873.78;29373;341;63005;-62
2022/03/26 01:37:29;;;;;;;0.90;0.90;;;;;;;6.62;50.41;97872.13;29373;207;63005;-61
2022/03/26 01:38:01;;;;;;;0.50;0.50;;;;;;;6.63;50.76;97878.34;29373;234;63005;-61
2022/03/26 01:38:33;;;;;;;0.50;0.50;;;;;;;6.60;50.97;97873.44;29371;227;64009;-61
2022/03/26 01:39:04;;;;;;;0.50;0.50;;;;;;;6.58;51.21;97876.41;29373;212;63005;-60
2022/03/26 01:39:35;;;;;;;0.50;0.50;;;;;;;6.56;51.13;97873.13;29373;204;63009;-60
2022/03/26 01:40:08;;;;;;;0.80;0.80;;;;;;;6.53;52.54;97873.63;29373;199;63004;-60
2022/03/26 01:40:42;;;;;;;6.22;5.87;;;;;;;6.49;51.75;97877.84;29371;314;63998;-61
2022/03/26 01:41:13;;;;;;;0.50;0.50;;;;;;;6.49;51.45;97879.72;29373;197;63004;-60
2022/03/26 01:41:45;;;;;;;0.50;0.50;;;;;;;6.50;51.85;97879.50;29373;267;63009;-61
2022/03/26 01:42:16;;;;;;;0.50;0.50;;;;;;;6.46;52.44;97878.34;29395;331;63004;-60
2022/03/26 01:42:48;;;;;;;0.70;0.70;;;;;;;6.43;51.86;97873.44;29373;300;63008;-60
2022/03/26 01:43:19;;;;;;;5.35;5.15;;;;;;;6.44;51.84;97877.75;29373;263;63005;-61
2022/03/26 01:43:51;;;;;;;1.85;1.85;;;;;;;6.44;51.67;97875.06;29373;372;63009;-61
2022/03/26 01:44:22;;;;;;;0.50;0.50;;;;;;;6.43;51.95;97878.81;29373;313;63005;-60
2022/03/26 01:44:53;;;;;;;0.50;0.50;;;;;;;6.42;51.69;97877.19;29373;323;63009;-60
2022/03/26 01:45:25;;;;;;;0.55;0.55;;;;;;;6.42;51.83;97879.88;29371;207;64005;-61
2022/03/26 01:45:57;;;;;;;0.50;0.50;;;;;;;6.43;51.83;97878.81;29373;196;63009;-61
2022/03/26 01:46:50;;;;;;;0.50;0.50;;;;;;;6.41;51.76;97875.53;29373;214;63005;-61
2022/03/26 01:47:21;;;;;;;0.60;0.60;;;;;;;6.41;51.59;97875.53;29371;354;64009;-61
2022/03/26 01:47:53;;;;;;;0.60;0.60;;;;;;;6.43;51.78;97878.81;29371;349;64004;-61
2022/03/26 01:48:24;;;;;;;0.50;0.50;;;;;;;6.41;51.84;97880.94;29373;335;63009;-61
2022/03/26 01:48:55;;;;;;;0.60;0.60;;;;;;;6.40;51.78;97873.91;29373;301;63004;-61
2022/03/26 01:49:27;;;;;;;0.60;0.60;;;;;;;6.41;51.88;97870.16;29373;262;63009;-61
2022/03/26 01:49:58;;;;;;;0.60;0.60;;;;;;;6.42;51.69;97871.78;29373;228;63004;-59
2022/03/26 01:50:30;;;;;;;0.60;0.60;;;;;;;6.44;51.46;97875.06;29373;202;63009;-62
2022/03/26 01:51:14;;;;;;;0.60;0.60;;;;;;;6.45;51.34;97871.31;29373;240;63005;-60
2022/03/26 01:51:49;;;;;;;0.60;0.60;;;;;;;6.47;51.11;97866.50;29371;246;64009;-59
2022/03/26 01:52:20;;;;;;;0.50;0.50;;;;;;;6.47;51.06;97869.19;29373;368;63005;-60
2022/03/26 01:52:52;;;;;;;0.60;0.60;;;;;;;6.46;51.27;97878.34;29373;378;63009;-61
2022/03/26 01:53:23;;;;;;;0.50;0.50;;;;;;;6.44;51.41;97866.97;29373;222;63005;-61
2022/03/26 01:53:54;;;;;;;0.50;0.50;;;;;;;6.43;51.27;97868.03;29373;202;63009;-61
2022/03/26 01:54:27;;;;;;;3.28;3.17;;;;;;;6.41;52.01;97870.16;29373;230;63005;-61
2022/03/26 01:54:59;;;;;;;0.50;0.50;;;;;;;6.39;51.45;97872.28;29371;213;64009;-61
2022/03/26 01:55:31;;;;;;;0.50;0.50;;;;;;;6.39;51.95;97874.97;29395;312;63004;-60
2022/03/26 01:56:03;;;;;;;0.50;0.50;;;;;;;6.38;52.06;97871.44;29395;316;63009;-61
2022/03/26 01:56:35;;;;;;;0.50;0.50;;;;;;;6.38;51.95;97867.94;29395;323;63004;-61
2022/03/26 01:57:10;;;;;;;0.50;0.50;;;;;;;6.36;52.07;97867.37;29395;298;63008;-60
2022/03/26 01:57:41;;;;;;;0.50;0.50;;;;;;;6.34;51.82;97870.31;29373;333;63004;-60
2022/03/26 01:58:16;;;;;;;0.60;0.60;;;;;;;6.34;51.97;97864.09;29373;297;63009;-60
2022/03/26 01:58:47;;;;;;;0.50;0.50;;;;;;;6.35;51.99;97871.94;29373;327;63005;-60
2022/03/26 01:59:19;;;;;;;0.50;0.50;;;;;;;6.35;51.57;97865.72;29373;277;63009;-59
2022/03/26 01:59:54;;;;;;;0.50;0.50;;;;;;;6.36;51.83;97861.97;29395;307;63005;-61
2022/03/26 02:00:26;;;;;;;0.60;0.60;;;;;;;6.36;51.31;97860.09;29371;199;64009;-59
2022/03/26 02:00:57;;;;;;;0.57;0.57;;;;;;;6.38;51.27;97865.25;29373;202;63005;-60
2022/03/26 02:01:28;;;;;;;0.60;0.60;;;;;;;6.39;51.31;97864.19;29373;317;63005;-60
2022/03/26 02:01:59;;;;;;;0.60;0.60;;;;;;;6.39;51.37;97867.69;29373;324;63005;-61
2022/03/26 02:02:30;;;;;;;0.55;0.55;;;;;;;6.39;51.07;97862.31;29373;225;63009;-60
2022/03/26 02:03:03;;;;;;;0.60;0.60;;;;;;;6.40;51.27;97863.12;29371;203;64004;-60
2022/03/26 02:03:35;;;;;;;0.50;0.50;;;;;;;6.40;51.17;97868.53;29373;320;63009;-60
2022/03/26 02:04:08;;;;;;;0.60;0.60;;;;;;;6.41;51.42;97867.47;29373;272;63004;-60
2022/03/26 02:04:39;;;;;;;0.60;0.60;;;;;;;6.41;51.34;97864.75;29373;217;63008;-61
2022/03/26 02:05:16;;;;;;;0.60;0.60;;;;;;;6.41;51.25;97859.37;29373;202;63004;-62
2022/03/26 02:05:47;;;;;;;0.50;0.50;;;;;;;6.43;51.06;97869.91;29371;263;64009;-61
2022/03/26 02:06:22;;;;;;;0.50;0.50;;;;;;;6.42;51.32;97865.59;29373;363;63005;-62
2022/03/26 02:06:54;;;;;;;0.55;0.55;;;;;;;6.42;51.32;97866.41;29373;308;63009;-61
2022/03/26 02:07:25;;;;;;;0.60;0.60;;;;;;;6.41;51.07;97859.37;29373;292;63005;-59
2022/03/26 02:07:56;;;;;;;0.50;0.50;;;;;;;6.41;51.31;97867.47;29373;265;63009;-61
2022/03/26 02:08:28;;;;;;;0.60;0.60;;;;;;;6.41;51.27;97870.16;29371;322;64005;-62
2022/03/26 02:09:05;;;;;;;0.50;0.50;;;;;;;6.41;51.25;97870.16;29373;264;63009;-61
2022/03/26 02:09:36;;;;;;;0.50;0.50;;;;;;;6.41;51.11;97870.16;29373;290;63015;-61
2022/03/26 02:10:09;;;;;;;0.60;0.60;;;;;;;6.41;51.04;97870.16;29373;230;63009;-60
2022/03/26 02:10:40;;;;;;;0.60;0.60;;;;;;;6.42;51.24;97871.78;29395;220;63004;-61
2022/03/26 02:11:12;;;;;;;0.50;0.50;;;;;;;6.41;50.79;97867.47;29373;295;63009;-61
2022/03/26 02:11:46;;;;;;;0.70;0.70;;;;;;;6.43;50.76;97870.72;29373;321;63004;-60
2022/03/26 02:12:28;;;;;;;0.60;0.60;;;;;;;6.45;50.85;97865.09;29373;197;63009;-61
2022/03/26 02:12:59;;;;;;;0.52;0.52;;;;;;;6.47;50.77;97866.50;29371;217;64005;-59
2022/03/26 02:13:53;;;;;;;0.60;0.60;;;;;;;6.50;50.62;97868.72;29373;197;63009;-60
2022/03/26 02:14:25;;;;;;;0.60;0.60;;;;;;;6.51;50.60;97864.97;29371;222;64022;-61
2022/03/26 02:14:57;;;;;;;0.60;0.60;;;;;;;6.49;50.53;97861.69;29373;207;63005;-61
2022/03/26 02:15:29;;;;;;;0.60;0.60;;;;;;;6.48;50.52;97865.44;29373;317;63009;-61
2022/03/26 02:16:01;;;;;;;0.50;0.50;;;;;;;6.48;50.60;97860.03;29373;318;63005;-61
2022/03/26 02:16:33;;;;;;;0.60;0.60;;;;;;;6.48;50.47;97864.63;29373;202;63009;-61
2022/03/26 02:17:05;;;;;;;0.60;0.60;;;;;;;6.47;50.46;97868.38;29373;278;63004;-62
2022/03/26 02:17:38;;;;;;;0.60;0.60;;;;;;;6.47;50.63;97868.38;29373;278;63004;-60
2022/03/26 02:18:09;;;;;;;0.52;0.52;;;;;;;6.45;50.46;97865.91;29373;202;63004;-61
2022/03/26 02:18:41;;;;;;;0.60;0.60;;;;;;;6.45;50.63;97859.72;29373;260;63009;-62
2022/03/26 02:19:12;;;;;;;0.60;0.60;;;;;;;6.45;50.93;97865.09;29373;232;63004;-61
2022/03/26 02:20:00;;;;;;;0.50;0.50;;;;;;;6.43;51.01;97862.66;29371;244;63998;-61
2022/03/26 02:20:31;;;;;;;0.50;0.50;;;;;;;6.42;51.01;97866.41;29373;206;63005;-61
2022/03/26 02:21:02;;;;;;;0.50;0.50;;;;;;;6.42;51.04;97865.59;29371;316;64009;-60
2022/03/26 02:21:35;;;;;;;0.60;0.60;;;;;;;6.42;51.10;97866.41;29373;213;63005;-60
2022/03/26 02:22:07;;;;;;;0.50;0.50;;;;;;;6.41;51.17;97858.56;29373;328;63009;-61
2022/03/26 02:22:39;;;;;;;0.60;0.60;;;;;;;6.41;51.00;97864.75;29373;304;63005;-60
2022/03/26 02:23:10;;;;;;;0.50;0.50;;;;;;;6.40;51.21;97863.12;29373;259;63009;-60
2022/03/26 02:23:43;;;;;;;0.50;0.50;;;;;;;6.40;50.96;97860.44;29373;196;63005;-61
2022/03/26 02:24:14;;;;;;;0.57;0.57;;;;;;;6.40;50.97;97860.44;29373;263;63009;-61
2022/03/26 02:24:45;;;;;;;0.50;0.50;;;;;;;6.40;51.07;97868.53;29373;265;63004;-61
2022/03/26 02:25:17;;;;;;;0.50;0.50;;;;;;;6.37;51.09;97864.44;29394;349;64009;-61
2022/03/26 02:25:50;;;;;;;0.60;0.60;;;;;;;6.36;51.03;97860.09;29373;223;63010;-61
2022/03/26 02:26:26;;;;;;;0.50;0.50;;;;;;;6.36;51.16;97861.97;29373;247;63027;-59
2022/03/26 02:27:05;;;;;;;0.50;0.50;;;;;;;6.36;51.10;97861.97;29373;306;63004;-61
2022/03/26 02:27:38;;;;;;;0.60;0.60;;;;;;;6.38;51.21;97860.69;29373;287;63009;-61
2022/03/26 02:28:09;;;;;;;0.60;0.60;;;;;;;6.36;51.05;97860.09;29373;202;63005;-61
2022/03/26 02:28:41;;;;;;;0.60;0.60;;;;;;;6.34;51.30;97853.31;29373;224;63009;-59
2022/03/26 02:29:12;;;;;;;0.80;0.80;;;;;;;6.32;52.36;97866.22;29373;342;63005;-60
2022/03/26 02:29:44;;;;;;;0.50;0.50;;;;;;;6.29;51.88;97861.31;29373;216;63009;-60
2022/03/26 02:30:15;;;;;;;0.50;0.50;;;;;;;6.28;51.91;97865.06;29371;324;64005;-61
2022/03/26 02:30:46;;;;;;;0.60;0.60;;;;;;;6.27;51.82;97868.81;29373;254;63009;-61
2022/03/26 02:31:17;;;;;;;0.50;0.50;;;;;;;6.26;51.60;97861.78;29371;229;64005;-59
2022/03/26 02:31:48;;;;;;;0.50;0.50;;;;;;;6.26;51.67;97861.78;29372;199;63009;-60
2022/03/26 02:32:25;;;;;;;0.60;0.60;;;;;;;6.26;51.37;97862.59;29373;202;63004;-61
2022/03/26 02:32:56;;;;;;;0.50;0.50;;;;;;;6.26;51.28;97862.59;29395;218;63009;-61
2022/03/26 02:33:28;;;;;;;0.60;0.60;;;;;;;6.27;51.56;97861.53;29373;204;63004;-61
2022/03/26 02:33:59;;;;;;;0.50;0.50;;;;;;;6.26;51.57;97859.91;29371;271;64009;-61
2022/03/26 02:34:30;;;;;;;0.50;0.50;;;;;;;6.27;51.47;97863.41;29373;333;63004;-61
2022/03/26 02:35:01;;;;;;;0.50;0.50;;;;;;;6.26;51.42;97851.81;29373;234;63009;-60
2022/03/26 02:35:32;;;;;;;0.50;0.50;;;;;;;6.27;51.49;97852.63;29373;198;63005;-61
2022/03/26 02:36:04;;;;;;;0.50;0.50;;;;;;;6.26;51.26;97859.91;29373;295;63009;-60